sensor_id;sensor_type;location;lat;lon;timestamp;pressure;altitude;pressure_sealevel;temperature;humidity
58622;BME280;44389;51.578;5.456;2023-05-24T00:00:36;102338.66;;;5.25;100.00
58622;BME280;44389;51.578;5.456;2023-05-24T00:03:01;102339.09;;;5.32;100.00
58622;BME280;44389;51.578;5.456;2023-05-24T00:05:28;102334.91;;;5.32;100.00
58622;BME280;44389;51.578;5.456;2023-05-24T00:07:55;102329.13;;;5.35;100.00
58622;BME280;44389;51.578;5.456;2023-05-24T00:10:20;102323.63;;;5.18;100.00
58622;BME280;44389;51.578;5.456;2023-05-24T00:12:45;102327.09;;;5.31;100.00
58622;BME280;44389;51.578;5.456;2023-05-24T00:15:11;102323.75;;;5.32;100.00
58622;BME280;44389;51.578;5.456;2023-05-24T00:17:36;102322.44;;;5.37;100.00
58622;BME280;44389;51.578;5.456;2023-05-24T00:20:10;102320.13;;;5.28;100.00
58622;BME280;44389;51.578;5.456;2023-05-24T00:22:39;102313.31;;;5.28;100.00
58622;BME280;44389;51.578;5.456;2023-05-24T00:25:05;102311.34;;;5.36;100.00
58622;BME280;44389;51.578;5.456;2023-05-24T00:27:31;102311.56;;;5.39;100.00
58622;BME280;44389;51.578;5.456;2023-05-24T00:29:57;102316.88;;;5.31;100.00
58622;BME280;44389;51.578;5.456;2023-05-24T00:32:22;102308.00;;;5.25;100.00
58622;BME280;44389;51.578;5.456;2023-05-24T00:34:47;102306.41;;;5.16;100.00
58622;BME280;44389;51.578;5.456;2023-05-24T00:37:13;102302.31;;;5.18;100.00
58622;BME280;44389;51.578;5.456;2023-05-24T00:39:39;102306.50;;;5.17;100.00
58622;BME280;44389;51.578;5.456;2023-05-24T00:42:04;102303.53;;;5.23;100.00
58622;BME280;44389;51.578;5.456;2023-05-24T00:44:30;102308.97;;;5.16;100.00
58622;BME280;44389;51.578;5.456;2023-05-24T00:46:55;102304.28;;;5.10;100.00
58622;BME280;44389;51.578;5.456;2023-05-24T00:49:22;102303.06;;;5.05;100.00
58622;BME280;44389;51.578;5.456;2023-05-24T00:51:48;102308.38;;;5.08;100.00
58622;BME280;44389;51.578;5.456;2023-05-24T00:54:13;102302.56;;;4.99;100.00
58622;BME280;44389;51.578;5.456;2023-05-24T00:56:40;102300.44;;;4.93;100.00
58622;BME280;44389;51.578;5.456;2023-05-24T00:59:06;102301.75;;;4.88;100.00
58622;BME280;44389;51.578;5.456;2023-05-24T01:01:31;102295.88;;;4.89;100.00
58622;BME280;44389;51.578;5.456;2023-05-24T01:03:59;102292.97;;;4.84;100.00
58622;BME280;44389;51.578;5.456;2023-05-24T01:06:25;102292.06;;;4.84;100.00
58622;BME280;44389;51.578;5.456;2023-05-24T01:09:16;102288.09;;;4.87;100.00
58622;BME280;44389;51.578;5.456;2023-05-24T01:12:02;102291.13;;;4.93;100.00
58622;BME280;44389;51.578;5.456;2023-05-24T01:15:03;102290.53;;;4.86;100.00
58622;BME280;44389;51.578;5.456;2023-05-24T01:18:18;102287.41;;;4.78;100.00
58622;BME280;44389;51.578;5.456;2023-05-24T01:20:35;102282.28;;;4.78;100.00
58622;BME280;44389;51.578;5.456;2023-05-24T01:23:27;102285.63;;;4.77;100.00
58622;BME280;44389;51.578;5.456;2023-05-24T01:26:18;102277.78;;;4.64;100.00
58622;BME280;44389;51.578;5.456;2023-05-24T01:28:46;102282.06;;;4.53;100.00
58622;BME280;44389;51.578;5.456;2023-05-24T01:31:13;102284.66;;;4.65;100.00
58622;BME280;44389;51.578;5.456;2023-05-24T01:33:40;102283.66;;;4.63;100.00
58622;BME280;44389;51.578;5.456;2023-05-24T01:36:06;102276.50;;;4.69;100.00
58622;BME280;44389;51.578;5.456;2023-05-24T01:38:32;102282.81;;;4.52;100.00
58622;BME280;44389;51.578;5.456;2023-05-24T01:41:02;102285.75;;;4.56;100.00
58622;BME280;44389;51.578;5.456;2023-05-24T01:44:00;102280.41;;;4.53;100.00
58622;BME280;44389;51.578;5.456;2023-05-24T01:46:36;102268.63;;;4.55;100.00
58622;BME280;44389;51.578;5.456;2023-05-24T01:49:20;102272.97;;;4.56;100.00
58622;BME280;44389;51.578;5.456;2023-05-24T01:51:50;102268.75;;;4.57;100.00
58622;BME280;44389;51.578;5.456;2023-05-24T01:54:23;102268.41;;;4.52;100.00
58622;BME280;44389;51.578;5.456;2023-05-24T01:56:51;102272.81;;;4.43;100.00
58622;BME280;44389;51.578;5.456;2023-05-24T01:59:17;102278.22;;;4.36;100.00
58622;BME280;44389;51.578;5.456;2023-05-24T02:01:43;102269.25;;;4.41;100.00
58622;BME280;44389;51.578;5.456;2023-05-24T02:04:10;102273.88;;;4.35;100.00
58622;BME280;44389;51.578;5.456;2023-05-24T02:06:36;102284.66;;;4.20;100.00
58622;BME280;44389;51.578;5.456;2023-05-24T02:09:02;102284.25;;;4.26;100.00
58622;BME280;44389;51.578;5.456;2023-05-24T02:11:27;102285.97;;;4.15;100.00
58622;BME280;44389;51.578;5.456;2023-05-24T02:13:52;102282.34;;;4.23;100.00
58622;BME280;44389;51.578;5.456;2023-05-24T02:16:18;102285.81;;;4.24;100.00
58622;BME280;44389;51.578;5.456;2023-05-24T02:18:43;102284.59;;;4.08;100.00
58622;BME280;44389;51.578;5.456;2023-05-24T02:21:11;102287.41;;;4.01;100.00
58622;BME280;44389;51.578;5.456;2023-05-24T02:23:36;102288.03;;;4.09;100.00
58622;BME280;44389;51.578;5.456;2023-05-24T02:26:02;102288.56;;;4.05;100.00
58622;BME280;44389;51.578;5.456;2023-05-24T02:28:27;102297.22;;;4.07;100.00
58622;BME280;44389;51.578;5.456;2023-05-24T02:30:56;102291.88;;;4.04;100.00
58622;BME280;44389;51.578;5.456;2023-05-24T02:33:21;102295.19;;;4.03;100.00
58622;BME280;44389;51.578;5.456;2023-05-24T02:35:49;102296.00;;;3.91;100.00
58622;BME280;44389;51.578;5.456;2023-05-24T02:38:15;102294.97;;;3.89;100.00
58622;BME280;44389;51.578;5.456;2023-05-24T02:40:40;102290.94;;;3.81;100.00
58622;BME280;44389;51.578;5.456;2023-05-24T02:43:05;102295.66;;;3.76;100.00
58622;BME280;44389;51.578;5.456;2023-05-24T02:45:31;102296.31;;;3.74;100.00
58622;BME280;44389;51.578;5.456;2023-05-24T02:47:56;102294.16;;;3.68;100.00
58622;BME280;44389;51.578;5.456;2023-05-24T02:50:21;102299.13;;;3.56;100.00
58622;BME280;44389;51.578;5.456;2023-05-24T02:52:47;102297.38;;;3.55;100.00
58622;BME280;44389;51.578;5.456;2023-05-24T02:55:12;102297.09;;;3.62;100.00
58622;BME280;44389;51.578;5.456;2023-05-24T02:57:37;102294.66;;;3.64;100.00
58622;BME280;44389;51.578;5.456;2023-05-24T03:00:04;102303.47;;;3.57;100.00
58622;BME280;44389;51.578;5.456;2023-05-24T03:02:33;102299.00;;;3.55;100.00
58622;BME280;44389;51.578;5.456;2023-05-24T03:05:02;102291.75;;;3.59;100.00
58622;BME280;44389;51.578;5.456;2023-05-24T03:07:27;102297.63;;;3.48;100.00
58622;BME280;44389;51.578;5.456;2023-05-24T03:09:53;102299.28;;;3.48;100.00
58622;BME280;44389;51.578;5.456;2023-05-24T03:12:18;102295.34;;;3.51;100.00
58622;BME280;44389;51.578;5.456;2023-05-24T03:14:43;102293.78;;;3.63;100.00
58622;BME280;44389;51.578;5.456;2023-05-24T03:17:09;102282.56;;;3.61;100.00
58622;BME280;44389;51.578;5.456;2023-05-24T03:19:34;102283.84;;;3.56;100.00
58622;BME280;44389;51.578;5.456;2023-05-24T03:21:59;102285.09;;;3.61;100.00
58622;BME280;44389;51.578;5.456;2023-05-24T03:24:25;102286.88;;;3.62;100.00
58622;BME280;44389;51.578;5.456;2023-05-24T03:26:50;102277.94;;;3.68;100.00
58622;BME280;44389;51.578;5.456;2023-05-24T03:29:16;102288.81;;;3.55;100.00
58622;BME280;44389;51.578;5.456;2023-05-24T03:31:41;102278.25;;;3.60;100.00
58622;BME280;44389;51.578;5.456;2023-05-24T03:34:06;102279.25;;;3.62;100.00
58622;BME280;44389;51.578;5.456;2023-05-24T03:36:32;102276.47;;;3.59;100.00
58622;BME280;44389;51.578;5.456;2023-05-24T03:38:57;102283.59;;;3.53;100.00
58622;BME280;44389;51.578;5.456;2023-05-24T03:41:23;102277.00;;;3.45;100.00
58622;BME280;44389;51.578;5.456;2023-05-24T03:43:49;102283.63;;;3.43;100.00
58622;BME280;44389;51.578;5.456;2023-05-24T03:46:14;102283.50;;;3.31;100.00
58622;BME280;44389;51.578;5.456;2023-05-24T03:48:40;102281.19;;;3.44;100.00
58622;BME280;44389;51.578;5.456;2023-05-24T03:51:05;102275.44;;;3.47;100.00
58622;BME280;44389;51.578;5.456;2023-05-24T03:53:30;102278.16;;;3.49;100.00
58622;BME280;44389;51.578;5.456;2023-05-24T03:55:56;102273.94;;;3.49;100.00
58622;BME280;44389;51.578;5.456;2023-05-24T03:58:21;102279.88;;;3.60;100.00
58622;BME280;44389;51.578;5.456;2023-05-24T04:00:46;102276.06;;;3.55;100.00
58622;BME280;44389;51.578;5.456;2023-05-24T04:03:12;102272.81;;;3.78;100.00
58622;BME280;44389;51.578;5.456;2023-05-24T04:05:37;102275.38;;;3.78;100.00
58622;BME280;44389;51.578;5.456;2023-05-24T04:08:02;102274.63;;;3.79;100.00
58622;BME280;44389;51.578;5.456;2023-05-24T04:10:28;102272.41;;;3.94;100.00
58622;BME280;44389;51.578;5.456;2023-05-24T04:12:53;102276.63;;;3.83;100.00
58622;BME280;44389;51.578;5.456;2023-05-24T04:15:21;102280.84;;;3.83;100.00
58622;BME280;44389;51.578;5.456;2023-05-24T04:17:47;102282.50;;;3.82;100.00
58622;BME280;44389;51.578;5.456;2023-05-24T04:20:12;102281.16;;;3.98;100.00
58622;BME280;44389;51.578;5.456;2023-05-24T04:22:38;102278.13;;;4.02;100.00
58622;BME280;44389;51.578;5.456;2023-05-24T04:25:04;102279.97;;;4.15;100.00
58622;BME280;44389;51.578;5.456;2023-05-24T04:27:29;102287.69;;;4.26;100.00
58622;BME280;44389;51.578;5.456;2023-05-24T04:29:55;102282.78;;;4.40;100.00
58622;BME280;44389;51.578;5.456;2023-05-24T04:32:20;102279.34;;;4.39;100.00
58622;BME280;44389;51.578;5.456;2023-05-24T04:34:47;102284.63;;;4.53;100.00
58622;BME280;44389;51.578;5.456;2023-05-24T04:37:13;102282.72;;;4.50;100.00
58622;BME280;44389;51.578;5.456;2023-05-24T04:39:42;102281.28;;;4.54;100.00
58622;BME280;44389;51.578;5.456;2023-05-24T04:42:08;102281.34;;;4.66;100.00
58622;BME280;44389;51.578;5.456;2023-05-24T04:44:34;102283.13;;;4.67;100.00
58622;BME280;44389;51.578;5.456;2023-05-24T04:46:59;102285.84;;;4.80;100.00
58622;BME280;44389;51.578;5.456;2023-05-24T04:49:26;102288.47;;;4.92;100.00
58622;BME280;44389;51.578;5.456;2023-05-24T04:51:52;102288.22;;;5.01;100.00
58622;BME280;44389;51.578;5.456;2023-05-24T04:54:17;102281.50;;;5.13;100.00
58622;BME280;44389;51.578;5.456;2023-05-24T04:56:42;102283.63;;;5.19;100.00
58622;BME280;44389;51.578;5.456;2023-05-24T04:59:07;102287.53;;;5.25;100.00
58622;BME280;44389;51.578;5.456;2023-05-24T05:01:34;102288.22;;;5.35;100.00
58622;BME280;44389;51.578;5.456;2023-05-24T05:04:01;102282.66;;;5.40;100.00
58622;BME280;44389;51.578;5.456;2023-05-24T05:06:28;102282.75;;;5.54;100.00
58622;BME280;44389;51.578;5.456;2023-05-24T05:08:53;102280.00;;;5.63;100.00
58622;BME280;44389;51.578;5.456;2023-05-24T05:11:19;102284.03;;;5.71;100.00
58622;BME280;44389;51.578;5.456;2023-05-24T05:13:44;102293.03;;;5.77;100.00
58622;BME280;44389;51.578;5.456;2023-05-24T05:16:10;102288.00;;;5.91;100.00
58622;BME280;44389;51.578;5.456;2023-05-24T05:18:36;102293.56;;;5.97;100.00
58622;BME280;44389;51.578;5.456;2023-05-24T05:21:01;102293.03;;;6.01;100.00
58622;BME280;44389;51.578;5.456;2023-05-24T05:23:27;102296.47;;;6.14;100.00
58622;BME280;44389;51.578;5.456;2023-05-24T05:25:53;102296.69;;;6.17;100.00
58622;BME280;44389;51.578;5.456;2023-05-24T05:28:19;102302.00;;;6.32;100.00
58622;BME280;44389;51.578;5.456;2023-05-24T05:30:44;102299.06;;;6.39;100.00
58622;BME280;44389;51.578;5.456;2023-05-24T05:33:10;102295.59;;;6.50;100.00
58622;BME280;44389;51.578;5.456;2023-05-24T05:35:35;102291.78;;;6.57;100.00
58622;BME280;44389;51.578;5.456;2023-05-24T05:38:00;102290.06;;;6.69;100.00
58622;BME280;44389;51.578;5.456;2023-05-24T05:40:25;102292.97;;;6.74;100.00
58622;BME280;44389;51.578;5.456;2023-05-24T05:42:51;102299.91;;;6.88;100.00
58622;BME280;44389;51.578;5.456;2023-05-24T05:45:16;102297.97;;;6.98;100.00
58622;BME280;44389;51.578;5.456;2023-05-24T05:47:41;102295.25;;;7.08;100.00
58622;BME280;44389;51.578;5.456;2023-05-24T05:50:07;102296.63;;;7.16;100.00
58622;BME280;44389;51.578;5.456;2023-05-24T05:52:33;102294.91;;;7.29;100.00
58622;BME280;44389;51.578;5.456;2023-05-24T05:54:58;102296.78;;;7.45;100.00
58622;BME280;44389;51.578;5.456;2023-05-24T05:57:24;102301.44;;;7.50;100.00
58622;BME280;44389;51.578;5.456;2023-05-24T05:59:50;102305.56;;;7.62;100.00
58622;BME280;44389;51.578;5.456;2023-05-24T06:02:15;102304.59;;;7.73;100.00
58622;BME280;44389;51.578;5.456;2023-05-24T06:04:43;102309.44;;;7.82;100.00
58622;BME280;44389;51.578;5.456;2023-05-24T06:07:08;102303.41;;;7.95;100.00
58622;BME280;44389;51.578;5.456;2023-05-24T06:09:33;102315.53;;;8.11;100.00
58622;BME280;44389;51.578;5.456;2023-05-24T06:11:58;102310.91;;;8.18;100.00
58622;BME280;44389;51.578;5.456;2023-05-24T06:14:24;102315.94;;;8.30;100.00
58622;BME280;44389;51.578;5.456;2023-05-24T06:16:51;102310.88;;;8.32;100.00
58622;BME280;44389;51.578;5.456;2023-05-24T06:19:18;102319.16;;;8.41;100.00
58622;BME280;44389;51.578;5.456;2023-05-24T06:21:44;102316.94;;;8.46;100.00
58622;BME280;44389;51.578;5.456;2023-05-24T06:24:16;102321.72;;;8.54;100.00
58622;BME280;44389;51.578;5.456;2023-05-24T06:26:51;102327.63;;;8.67;100.00
58622;BME280;44389;51.578;5.456;2023-05-24T06:29:17;102325.59;;;8.76;100.00
58622;BME280;44389;51.578;5.456;2023-05-24T06:31:44;102328.09;;;8.89;100.00
58622;BME280;44389;51.578;5.456;2023-05-24T06:34:11;102320.97;;;8.99;100.00
58622;BME280;44389;51.578;5.456;2023-05-24T06:36:37;102326.13;;;9.14;100.00
58622;BME280;44389;51.578;5.456;2023-05-24T06:39:07;102324.28;;;9.41;100.00
58622;BME280;44389;51.578;5.456;2023-05-24T06:41:32;102318.53;;;9.45;100.00
58622;BME280;44389;51.578;5.456;2023-05-24T06:43:58;102322.22;;;9.80;100.00
58622;BME280;44389;51.578;5.456;2023-05-24T06:46:23;102318.59;;;9.92;100.00
58622;BME280;44389;51.578;5.456;2023-05-24T06:48:48;102315.19;;;9.93;100.00
58622;BME280;44389;51.578;5.456;2023-05-24T06:51:14;102317.38;;;10.01;100.00
58622;BME280;44389;51.578;5.456;2023-05-24T06:53:39;102322.47;;;10.00;100.00
58622;BME280;44389;51.578;5.456;2023-05-24T06:56:04;102322.81;;;10.06;100.00
58622;BME280;44389;51.578;5.456;2023-05-24T06:58:30;102328.53;;;10.17;100.00
58622;BME280;44389;51.578;5.456;2023-05-24T07:00:55;102328.97;;;10.25;100.00
58622;BME280;44389;51.578;5.456;2023-05-24T07:03:21;102324.88;;;10.28;100.00
58622;BME280;44389;51.578;5.456;2023-05-24T07:05:47;102321.72;;;10.34;100.00
58622;BME280;44389;51.578;5.456;2023-05-24T07:08:12;102316.56;;;10.34;100.00
58622;BME280;44389;51.578;5.456;2023-05-24T07:10:37;102321.13;;;10.54;100.00
58622;BME280;44389;51.578;5.456;2023-05-24T07:13:03;102317.69;;;10.70;100.00
58622;BME280;44389;51.578;5.456;2023-05-24T07:15:29;102325.31;;;10.69;100.00
58622;BME280;44389;51.578;5.456;2023-05-24T07:17:54;102326.56;;;10.76;100.00
58622;BME280;44389;51.578;5.456;2023-05-24T07:20:20;102325.09;;;10.97;100.00
58622;BME280;44389;51.578;5.456;2023-05-24T07:22:45;102327.91;;;11.18;98.24
58622;BME280;44389;51.578;5.456;2023-05-24T07:25:10;102329.94;;;11.42;97.03
58622;BME280;44389;51.578;5.456;2023-05-24T07:27:36;102323.56;;;11.70;97.67
58622;BME280;44389;51.578;5.456;2023-05-24T07:30:02;102333.28;;;11.94;95.99
58622;BME280;44389;51.578;5.456;2023-05-24T07:32:27;102327.56;;;12.17;93.03
58622;BME280;44389;51.578;5.456;2023-05-24T07:34:53;102331.88;;;12.56;92.76
58622;BME280;44389;51.578;5.456;2023-05-24T07:37:19;102337.16;;;12.77;89.49
58622;BME280;44389;51.578;5.456;2023-05-24T07:39:44;102336.34;;;12.98;84.24
58622;BME280;44389;51.578;5.456;2023-05-24T07:42:09;102336.19;;;12.95;80.16
58622;BME280;44389;51.578;5.456;2023-05-24T07:44:35;102339.13;;;12.83;82.76
58622;BME280;44389;51.578;5.456;2023-05-24T07:47:00;102339.25;;;12.66;82.50
58622;BME280;44389;51.578;5.456;2023-05-24T07:49:27;102340.78;;;12.81;84.79
58622;BME280;44389;51.578;5.456;2023-05-24T07:51:52;102334.16;;;12.88;83.15
58622;BME280;44389;51.578;5.456;2023-05-24T07:54:20;102333.34;;;12.89;81.55
58622;BME280;44389;51.578;5.456;2023-05-24T07:56:46;102327.94;;;12.84;83.10
58622;BME280;44389;51.578;5.456;2023-05-24T07:59:11;102329.19;;;12.73;83.28
58622;BME280;44389;51.578;5.456;2023-05-24T08:01:36;102338.66;;;12.72;82.73
58622;BME280;44389;51.578;5.456;2023-05-24T08:04:02;102338.59;;;12.90;84.66
58622;BME280;44389;51.578;5.456;2023-05-24T08:06:28;102332.44;;;12.68;81.53
58622;BME280;44389;51.578;5.456;2023-05-24T08:08:54;102336.06;;;12.72;81.38
58622;BME280;44389;51.578;5.456;2023-05-24T08:11:19;102326.41;;;12.68;81.20
58622;BME280;44389;51.578;5.456;2023-05-24T08:13:45;102326.50;;;12.91;81.34
58622;BME280;44389;51.578;5.456;2023-05-24T08:16:11;102334.69;;;13.20;80.38
58622;BME280;44389;51.578;5.456;2023-05-24T08:18:36;102325.94;;;13.37;78.41
58622;BME280;44389;51.578;5.456;2023-05-24T08:21:01;102326.88;;;13.39;77.39
58622;BME280;44389;51.578;5.456;2023-05-24T08:23:27;102330.22;;;13.58;77.16
58622;BME280;44389;51.578;5.456;2023-05-24T08:25:54;102329.97;;;13.52;76.59
58622;BME280;44389;51.578;5.456;2023-05-24T08:28:21;102329.97;;;13.73;77.64
58622;BME280;44389;51.578;5.456;2023-05-24T08:30:46;102328.38;;;13.97;77.07
58622;BME280;44389;51.578;5.456;2023-05-24T08:33:12;102329.63;;;14.07;74.38
58622;BME280;44389;51.578;5.456;2023-05-24T08:35:37;102325.72;;;14.19;71.78
58622;BME280;44389;51.578;5.456;2023-05-24T08:38:02;102316.41;;;14.24;71.44
58622;BME280;44389;51.578;5.456;2023-05-24T08:40:27;102323.34;;;14.47;71.69
58622;BME280;44389;51.578;5.456;2023-05-24T08:42:54;102318.69;;;14.86;70.18
58622;BME280;44389;51.578;5.456;2023-05-24T08:45:20;102312.56;;;14.84;69.75
58622;BME280;44389;51.578;5.456;2023-05-24T08:47:46;102315.22;;;14.62;69.08
58622;BME280;44389;51.578;5.456;2023-05-24T08:50:14;102315.84;;;14.55;66.21
58622;BME280;44389;51.578;5.456;2023-05-24T08:52:40;102316.97;;;14.62;67.81
58622;BME280;44389;51.578;5.456;2023-05-24T08:55:07;102313.16;;;15.01;69.25
58622;BME280;44389;51.578;5.456;2023-05-24T08:57:33;102312.78;;;15.15;68.42
58622;BME280;44389;51.578;5.456;2023-05-24T09:00:04;102312.66;;;15.11;64.70
58622;BME280;44389;51.578;5.456;2023-05-24T09:02:30;102312.50;;;15.32;65.29
58622;BME280;44389;51.578;5.456;2023-05-24T09:04:57;102310.28;;;15.17;61.90
58622;BME280;44389;51.578;5.456;2023-05-24T09:07:23;102301.03;;;15.53;65.63
58622;BME280;44389;51.578;5.456;2023-05-24T09:10:03;102304.47;;;15.52;65.64
58622;BME280;44389;51.578;5.456;2023-05-24T09:12:30;102310.94;;;15.37;65.58
58622;BME280;44389;51.578;5.456;2023-05-24T09:14:57;102310.53;;;14.99;63.92
58622;BME280;44389;51.578;5.456;2023-05-24T09:17:23;102300.75;;;14.92;63.53
58622;BME280;44389;51.578;5.456;2023-05-24T09:19:49;102306.41;;;15.06;65.36
58622;BME280;44389;51.578;5.456;2023-05-24T09:22:16;102305.84;;;15.40;66.05
58622;BME280;44389;51.578;5.456;2023-05-24T09:24:48;102307.00;;;15.23;63.54
58622;BME280;44389;51.578;5.456;2023-05-24T09:27:14;102300.84;;;14.95;63.31
58622;BME280;44389;51.578;5.456;2023-05-24T09:29:41;102310.75;;;14.81;61.38
58622;BME280;44389;51.578;5.456;2023-05-24T09:32:07;102297.75;;;14.57;62.34
58622;BME280;44389;51.578;5.456;2023-05-24T09:34:40;102306.31;;;14.31;65.46
58622;BME280;44389;51.578;5.456;2023-05-24T09:37:10;102306.88;;;14.47;63.91
58622;BME280;44389;51.578;5.456;2023-05-24T09:39:39;102304.16;;;14.91;63.97
58622;BME280;44389;51.578;5.456;2023-05-24T09:42:06;102306.94;;;15.47;61.30
58622;BME280;44389;51.578;5.456;2023-05-24T09:44:31;102302.78;;;16.08;61.37
58622;BME280;44389;51.578;5.456;2023-05-24T09:47:01;102292.31;;;16.36;56.92
58622;BME280;44389;51.578;5.456;2023-05-24T09:49:29;102299.94;;;16.60;55.85
58622;BME280;44389;51.578;5.456;2023-05-24T09:51:55;102298.03;;;17.18;56.29
58622;BME280;44389;51.578;5.456;2023-05-24T09:54:20;102290.72;;;17.38;54.65
58622;BME280;44389;51.578;5.456;2023-05-24T09:56:45;102300.94;;;16.95;53.13
58622;BME280;44389;51.578;5.456;2023-05-24T09:59:11;102287.47;;;16.48;52.88
58622;BME280;44389;51.578;5.456;2023-05-24T10:01:37;102293.88;;;16.29;54.39
58622;BME280;44389;51.578;5.456;2023-05-24T10:04:03;102290.78;;;15.83;54.65
58622;BME280;44389;51.578;5.456;2023-05-24T10:06:32;102298.16;;;15.98;57.22
58622;BME280;44389;51.578;5.456;2023-05-24T10:09:01;102293.38;;;17.05;56.84
58622;BME280;44389;51.578;5.456;2023-05-24T10:11:30;102288.91;;;17.72;50.83
58622;BME280;44389;51.578;5.456;2023-05-24T10:13:56;102285.66;;;18.64;48.86
58622;BME280;44389;51.578;5.456;2023-05-24T10:16:21;102294.69;;;19.84;47.79
58622;BME280;44389;51.578;5.456;2023-05-24T10:18:47;102281.09;;;20.88;41.76
58622;BME280;44389;51.578;5.456;2023-05-24T10:21:12;102284.75;;;21.04;41.93
58622;BME280;44389;51.578;5.456;2023-05-24T10:23:38;102274.50;;;21.32;40.20
58622;BME280;44389;51.578;5.456;2023-05-24T10:26:08;102288.81;;;20.03;41.10
58622;BME280;44389;51.578;5.456;2023-05-24T10:28:39;102288.41;;;18.71;43.49
58622;BME280;44389;51.578;5.456;2023-05-24T10:33:37;102285.94;;;17.57;47.23
58622;BME280;44389;51.578;5.456;2023-05-24T10:36:05;102290.72;;;17.38;49.33
58622;BME280;44389;51.578;5.456;2023-05-24T10:38:32;102284.22;;;17.56;47.99
58622;BME280;44389;51.578;5.456;2023-05-24T10:40:58;102288.47;;;17.92;48.62
58622;BME280;44389;51.578;5.456;2023-05-24T10:43:23;102284.06;;;17.89;47.26
58622;BME280;44389;51.578;5.456;2023-05-24T10:45:50;102280.00;;;17.99;47.67
58622;BME280;44389;51.578;5.456;2023-05-24T10:50:42;102283.06;;;17.83;48.17
58622;BME280;44389;51.578;5.456;2023-05-24T10:53:14;102280.09;;;17.66;48.80
58622;BME280;44389;51.578;5.456;2023-05-24T10:55:57;102279.53;;;17.42;47.79
58622;BME280;44389;51.578;5.456;2023-05-24T11:01:32;102283.69;;;16.99;49.71
58622;BME280;44389;51.578;5.456;2023-05-24T11:04:11;102281.88;;;16.65;48.94
58622;BME280;44389;51.578;5.456;2023-05-24T11:06:53;102277.22;;;16.53;48.88
58622;BME280;44389;51.578;5.456;2023-05-24T11:09:20;102277.81;;;16.44;49.69
58622;BME280;44389;51.578;5.456;2023-05-24T11:11:47;102277.78;;;16.42;51.21
58622;BME280;44389;51.578;5.456;2023-05-24T11:14:17;102279.44;;;16.40;51.71
58622;BME280;44389;51.578;5.456;2023-05-24T11:16:44;102278.44;;;16.35;51.32
58622;BME280;44389;51.578;5.456;2023-05-24T11:19:13;102283.06;;;16.77;51.78
58622;BME280;44389;51.578;5.456;2023-05-24T11:21:39;102290.16;;;16.83;51.47
58622;BME280;44389;51.578;5.456;2023-05-24T11:24:05;102285.34;;;16.65;50.64
58622;BME280;44389;51.578;5.456;2023-05-24T11:26:31;102283.13;;;16.49;52.06
58622;BME280;44389;51.578;5.456;2023-05-24T11:28:56;102279.09;;;16.28;52.53
58622;BME280;44389;51.578;5.456;2023-05-24T11:31:27;102283.13;;;16.17;54.78
58622;BME280;44389;51.578;5.456;2023-05-24T11:33:52;102286.06;;;15.99;53.57
58622;BME280;44389;51.578;5.456;2023-05-24T11:36:19;102274.66;;;15.95;54.99
58622;BME280;44389;51.578;5.456;2023-05-24T11:38:48;102272.69;;;15.88;54.83
58622;BME280;44389;51.578;5.456;2023-05-24T11:41:13;102270.59;;;16.05;55.46
58622;BME280;44389;51.578;5.456;2023-05-24T11:43:39;102277.25;;;16.24;54.04
58622;BME280;44389;51.578;5.456;2023-05-24T11:46:06;102271.34;;;16.29;53.77
58622;BME280;44389;51.578;5.456;2023-05-24T11:48:31;102277.63;;;16.38;52.25
58622;BME280;44389;51.578;5.456;2023-05-24T11:50:57;102271.00;;;16.48;53.14
58622;BME280;44389;51.578;5.456;2023-05-24T11:53:24;102267.63;;;16.52;52.20
58622;BME280;44389;51.578;5.456;2023-05-24T11:55:49;102269.72;;;16.65;54.45
58622;BME280;44389;51.578;5.456;2023-05-24T12:00:41;102274.38;;;16.77;54.95
58622;BME280;44389;51.578;5.456;2023-05-24T12:03:07;102270.69;;;16.69;52.71
58622;BME280;44389;51.578;5.456;2023-05-24T12:05:33;102267.09;;;16.95;52.20
58622;BME280;44389;51.578;5.456;2023-05-24T12:08:05;102270.97;;;17.11;52.74
58622;BME280;44389;51.578;5.456;2023-05-24T12:10:41;102267.75;;;17.22;52.26
58622;BME280;44389;51.578;5.456;2023-05-24T12:13:21;102255.88;;;17.33;53.71
58622;BME280;44389;51.578;5.456;2023-05-24T12:15:54;102258.78;;;17.10;51.71
58622;BME280;44389;51.578;5.456;2023-05-24T12:18:21;102259.66;;;17.11;53.74
58622;BME280;44389;51.578;5.456;2023-05-24T12:20:49;102260.16;;;16.96;52.40
58622;BME280;44389;51.578;5.456;2023-05-24T12:23:17;102260.97;;;16.95;52.64
58622;BME280;44389;51.578;5.456;2023-05-24T12:25:43;102264.59;;;17.00;51.08
58622;BME280;44389;51.578;5.456;2023-05-24T12:28:08;102265.94;;;17.19;51.52
58622;BME280;44389;51.578;5.456;2023-05-24T12:30:36;102271.72;;;17.42;52.23
58622;BME280;44389;51.578;5.456;2023-05-24T12:33:02;102260.69;;;17.18;50.41
58622;BME280;44389;51.578;5.456;2023-05-24T12:35:28;102260.31;;;17.02;50.75
58622;BME280;44389;51.578;5.456;2023-05-24T12:37:59;102261.16;;;17.01;52.13
58622;BME280;44389;51.578;5.456;2023-05-24T12:40:24;102258.88;;;17.14;52.76
58622;BME280;44389;51.578;5.456;2023-05-24T12:42:52;102257.03;;;17.09;52.15
58622;BME280;44389;51.578;5.456;2023-05-24T12:45:19;102260.31;;;17.02;53.23
58622;BME280;44389;51.578;5.456;2023-05-24T12:47:52;102256.44;;;16.88;51.25
58622;BME280;44389;51.578;5.456;2023-05-24T12:50:18;102260.63;;;16.81;52.09
58622;BME280;44389;51.578;5.456;2023-05-24T12:52:44;102260.63;;;16.81;51.98
58622;BME280;44389;51.578;5.456;2023-05-24T12:55:15;102255.03;;;16.99;51.43
58622;BME280;44389;51.578;5.456;2023-05-24T12:57:42;102256.06;;;17.06;51.46
58622;BME280;44389;51.578;5.456;2023-05-24T13:00:09;102253.25;;;17.33;50.00